Atlanta, Georgia
Traffic Map
Current Weather Conditions
Atlanta, Georgia
Clear
Clear
54°
Feels Like: 54°
Wind Chill: 54° Ceiling: Unl
Heat Index: 54° Visibility: 10mi
Dew Point: 38° Wind: 5mph
Humidity: 55% Direction: 270° (W)
Pressure: 29.95in Gusts: 0mph
Raw Report DataKATL 240552Z 27004KT 10SM CLR 12/03 A2995 RMK AO2 SLP138 T01220033 10217 20122 58000
Traffic Incident Summary
Active as of:
Severity:
Category:
InformationThere was an issue retrieving the traffic information for this location. Please try a different location or try again shortly.
Advertisements
At Last! Intellicast now available for iPhone and Android